<?xml version="1.0" encoding="UTF-8" standalone="no" ?>
<gpx xmlns="http://www.topografix.com/GPX/1/1" xmlns:xsi="http://www.w3.org/2001/XMLSchema-instance" xsi:schemaLocation="http://www.topografix.com/GPX/1/1 http://www.topografix.com/GPX/1/1/gpx.xsd" version="1.1" creator="VisuGPX - https://www.visugpx.com">
  <metadata>
    <name>Queyras J1-Château Queyras vers Ceillac</name>
  </metadata>
  <trk>
    <name><![CDATA[12579533-Tour du Queyras Jour 6]]></name>
    <trkseg>
      <trkpt lat="44.75837" lon="6.80079">
        <ele>1355</ele>
        <time>2022-07-09T10:10:27Z</time>
      </trkpt>
      <trkpt lat="44.75802" lon="6.80073">
        <ele>1352</ele>
        <time>2022-07-09T10:11:14Z</time>
      </trkpt>
      <trkpt lat="44.75802" lon="6.79944">
        <ele>1354</ele>
        <time>2022-07-09T10:13:16Z</time>
      </trkpt>
      <trkpt lat="44.75788" lon="6.79932">
        <ele>1353</ele>
        <time>2022-07-09T10:13:38Z</time>
      </trkpt>
      <trkpt lat="44.75784" lon="6.80044">
        <ele>1352</ele>
        <time>2022-07-09T10:15:24Z</time>
      </trkpt>
      <trkpt lat="44.75769" lon="6.80016">
        <ele>1351</ele>
        <time>2022-07-09T10:15:58Z</time>
      </trkpt>
      <trkpt lat="44.75743" lon="6.79903">
        <ele>1350</ele>
        <time>2022-07-09T10:17:50Z</time>
      </trkpt>
      <trkpt lat="44.75694" lon="6.79759">
        <ele>1348</ele>
        <time>2022-07-09T10:20:22Z</time>
      </trkpt>
      <trkpt lat="44.75647" lon="6.79601">
        <ele>1350</ele>
        <time>2022-07-09T10:23:04Z</time>
      </trkpt>
      <trkpt lat="44.75631" lon="6.79442">
        <ele>1347</ele>
        <time>2022-07-09T10:25:36Z</time>
      </trkpt>
      <trkpt lat="44.75634" lon="6.79274">
        <ele>1347</ele>
        <time>2022-07-09T10:28:15Z</time>
      </trkpt>
      <trkpt lat="44.75621" lon="6.79233">
        <ele>1351</ele>
        <time>2022-07-09T10:28:58Z</time>
      </trkpt>
      <trkpt lat="44.75597" lon="6.79219">
        <ele>1352</ele>
        <time>2022-07-09T10:29:33Z</time>
      </trkpt>
      <trkpt lat="44.75569" lon="6.79234">
        <ele>1353</ele>
        <time>2022-07-09T10:30:12Z</time>
      </trkpt>
      <trkpt lat="44.75534" lon="6.79239">
        <ele>1361</ele>
        <time>2022-07-09T10:30:59Z</time>
      </trkpt>
      <trkpt lat="44.75483" lon="6.79252">
        <ele>1374</ele>
        <time>2022-07-09T10:32:09Z</time>
      </trkpt>
      <trkpt lat="44.75445" lon="6.79303">
        <ele>1391</ele>
        <time>2022-07-09T10:33:19Z</time>
      </trkpt>
      <trkpt lat="44.75403" lon="6.79332">
        <ele>1412</ele>
        <time>2022-07-09T10:34:21Z</time>
      </trkpt>
      <trkpt lat="44.75369" lon="6.79298">
        <ele>1424</ele>
        <time>2022-07-09T10:35:17Z</time>
      </trkpt>
      <trkpt lat="44.75335" lon="6.79252">
        <ele>1436</ele>
        <time>2022-07-09T10:36:20Z</time>
      </trkpt>
      <trkpt lat="44.75297" lon="6.79227">
        <ele>1448</ele>
        <time>2022-07-09T10:37:16Z</time>
      </trkpt>
      <trkpt lat="44.75269" lon="6.79173">
        <ele>1451</ele>
        <time>2022-07-09T10:38:19Z</time>
      </trkpt>
      <trkpt lat="44.75224" lon="6.79168">
        <ele>1463</ele>
        <time>2022-07-09T10:39:19Z</time>
      </trkpt>
      <trkpt lat="44.75157" lon="6.79168">
        <ele>1477</ele>
        <time>2022-07-09T10:40:49Z</time>
      </trkpt>
      <trkpt lat="44.75108" lon="6.79161">
        <ele>1478</ele>
        <time>2022-07-09T10:41:54Z</time>
      </trkpt>
      <trkpt lat="44.75027" lon="6.7922">
        <ele>1513</ele>
        <time>2022-07-09T10:43:56Z</time>
      </trkpt>
      <trkpt lat="44.74911" lon="6.79197">
        <ele>1526</ele>
        <time>2022-07-09T10:46:32Z</time>
      </trkpt>
      <trkpt lat="44.74813" lon="6.79235">
        <ele>1546</ele>
        <time>2022-07-09T10:48:48Z</time>
      </trkpt>
      <trkpt lat="44.74735" lon="6.79358">
        <ele>1579</ele>
        <time>2022-07-09T10:51:24Z</time>
      </trkpt>
      <trkpt lat="44.74691" lon="6.79475">
        <ele>1604</ele>
        <time>2022-07-09T10:53:30Z</time>
      </trkpt>
      <trkpt lat="44.74686" lon="6.79514">
        <ele>1610</ele>
        <time>2022-07-09T10:54:07Z</time>
      </trkpt>
      <trkpt lat="44.74712" lon="6.79495">
        <ele>1614</ele>
        <time>2022-07-09T10:54:46Z</time>
      </trkpt>
      <trkpt lat="44.74745" lon="6.79479">
        <ele>1619</ele>
        <time>2022-07-09T10:55:33Z</time>
      </trkpt>
      <trkpt lat="44.74733" lon="6.79507">
        <ele>1625</ele>
        <time>2022-07-09T10:56:04Z</time>
      </trkpt>
      <trkpt lat="44.74699" lon="6.79555">
        <ele>1625</ele>
        <time>2022-07-09T10:57:08Z</time>
      </trkpt>
      <trkpt lat="44.74693" lon="6.79608">
        <ele>1635</ele>
        <time>2022-07-09T10:57:59Z</time>
      </trkpt>
      <trkpt lat="44.74671" lon="6.79676">
        <ele>1643</ele>
        <time>2022-07-09T10:59:10Z</time>
      </trkpt>
      <trkpt lat="44.74642" lon="6.7972">
        <ele>1653</ele>
        <time>2022-07-09T11:00:07Z</time>
      </trkpt>
      <trkpt lat="44.74585" lon="6.79744">
        <ele>1657</ele>
        <time>2022-07-09T11:01:26Z</time>
      </trkpt>
      <trkpt lat="44.74539" lon="6.79742">
        <ele>1662</ele>
        <time>2022-07-09T11:02:28Z</time>
      </trkpt>
      <trkpt lat="44.74512" lon="6.79748">
        <ele>1665</ele>
        <time>2022-07-09T11:03:04Z</time>
      </trkpt>
      <trkpt lat="44.74492" lon="6.79768">
        <ele>1671</ele>
        <time>2022-07-09T11:03:37Z</time>
      </trkpt>
      <trkpt lat="44.74457" lon="6.79821">
        <ele>1688</ele>
        <time>2022-07-09T11:04:45Z</time>
      </trkpt>
      <trkpt lat="44.74365" lon="6.79809">
        <ele>1713</ele>
        <time>2022-07-09T11:06:49Z</time>
      </trkpt>
      <trkpt lat="44.74293" lon="6.79755">
        <ele>1722</ele>
        <time>2022-07-09T11:08:38Z</time>
      </trkpt>
      <trkpt lat="44.74214" lon="6.79779">
        <ele>1744</ele>
        <time>2022-07-09T11:10:25Z</time>
      </trkpt>
      <trkpt lat="44.74138" lon="6.79758">
        <ele>1754</ele>
        <time>2022-07-09T11:12:09Z</time>
      </trkpt>
      <trkpt lat="44.741" lon="6.79761">
        <ele>1762</ele>
        <time>2022-07-09T11:13:00Z</time>
      </trkpt>
      <trkpt lat="44.74068" lon="6.79793">
        <ele>1774</ele>
        <time>2022-07-09T11:13:52Z</time>
      </trkpt>
      <trkpt lat="44.73982" lon="6.79836">
        <ele>1792</ele>
        <time>2022-07-09T11:15:54Z</time>
      </trkpt>
      <trkpt lat="44.73943" lon="6.79851">
        <ele>1796</ele>
        <time>2022-07-09T11:16:48Z</time>
      </trkpt>
      <trkpt lat="44.73874" lon="6.79893">
        <ele>1808</ele>
        <time>2022-07-09T11:18:28Z</time>
      </trkpt>
      <trkpt lat="44.73835" lon="6.79936">
        <ele>1819</ele>
        <time>2022-07-09T11:19:34Z</time>
      </trkpt>
      <trkpt lat="44.73801" lon="6.79981">
        <ele>1834</ele>
        <time>2022-07-09T11:20:36Z</time>
      </trkpt>
      <trkpt lat="44.73745" lon="6.79969">
        <ele>1833</ele>
        <time>2022-07-09T11:21:52Z</time>
      </trkpt>
      <trkpt lat="44.73708" lon="6.7996">
        <ele>1828</ele>
        <time>2022-07-09T11:22:42Z</time>
      </trkpt>
      <trkpt lat="44.73678" lon="6.80039">
        <ele>1843</ele>
        <time>2022-07-09T11:24:07Z</time>
      </trkpt>
      <trkpt lat="44.73645" lon="6.80094">
        <ele>1858</ele>
        <time>2022-07-09T11:25:15Z</time>
      </trkpt>
      <trkpt lat="44.73604" lon="6.80087">
        <ele>1860</ele>
        <time>2022-07-09T11:26:10Z</time>
      </trkpt>
      <trkpt lat="44.73542" lon="6.80078">
        <ele>1860</ele>
        <time>2022-07-09T11:27:34Z</time>
      </trkpt>
      <trkpt lat="44.73507" lon="6.80087">
        <ele>1863</ele>
        <time>2022-07-09T11:28:21Z</time>
      </trkpt>
      <trkpt lat="44.73469" lon="6.80081">
        <ele>1863</ele>
        <time>2022-07-09T11:29:12Z</time>
      </trkpt>
      <trkpt lat="44.73438" lon="6.80118">
        <ele>1876</ele>
        <time>2022-07-09T11:30:06Z</time>
      </trkpt>
      <trkpt lat="44.73402" lon="6.801">
        <ele>1872</ele>
        <time>2022-07-09T11:30:57Z</time>
      </trkpt>
      <trkpt lat="44.73361" lon="6.8013">
        <ele>1881</ele>
        <time>2022-07-09T11:31:59Z</time>
      </trkpt>
      <trkpt lat="44.73329" lon="6.80106">
        <ele>1876</ele>
        <time>2022-07-09T11:32:47Z</time>
      </trkpt>
      <trkpt lat="44.73206" lon="6.80124">
        <ele>1895</ele>
        <time>2022-07-09T11:35:32Z</time>
      </trkpt>
      <trkpt lat="44.73175" lon="6.80185">
        <ele>1911</ele>
        <time>2022-07-09T11:36:43Z</time>
      </trkpt>
      <trkpt lat="44.73057" lon="6.80212">
        <ele>1920</ele>
        <time>2022-07-09T11:39:23Z</time>
      </trkpt>
      <trkpt lat="44.72912" lon="6.8027">
        <ele>1944</ele>
        <time>2022-07-09T11:42:44Z</time>
      </trkpt>
      <trkpt lat="44.72787" lon="6.80336">
        <ele>1953</ele>
        <time>2022-07-09T11:45:42Z</time>
      </trkpt>
      <trkpt lat="44.72662" lon="6.80397">
        <ele>1971</ele>
        <time>2022-07-09T11:48:39Z</time>
      </trkpt>
      <trkpt lat="44.72628" lon="6.80461">
        <ele>1990</ele>
        <time>2022-07-09T11:49:55Z</time>
      </trkpt>
      <trkpt lat="44.72628" lon="6.80494">
        <ele>1999</ele>
        <time>2022-07-09T11:50:26Z</time>
      </trkpt>
      <trkpt lat="44.72576" lon="6.80506">
        <ele>2003</ele>
        <time>2022-07-09T11:51:36Z</time>
      </trkpt>
      <trkpt lat="44.72533" lon="6.80491">
        <ele>2007</ele>
        <time>2022-07-09T11:52:35Z</time>
      </trkpt>
      <trkpt lat="44.72486" lon="6.80509">
        <ele>2021</ele>
        <time>2022-07-09T11:53:40Z</time>
      </trkpt>
      <trkpt lat="44.72363" lon="6.80506">
        <ele>2045</ele>
        <time>2022-07-09T11:56:24Z</time>
      </trkpt>
      <trkpt lat="44.72272" lon="6.80488">
        <ele>2065</ele>
        <time>2022-07-09T11:58:27Z</time>
      </trkpt>
      <trkpt lat="44.72197" lon="6.80427">
        <ele>2073</ele>
        <time>2022-07-09T12:00:23Z</time>
      </trkpt>
      <trkpt lat="44.72128" lon="6.80361">
        <ele>2083</ele>
        <time>2022-07-09T12:02:14Z</time>
      </trkpt>
      <trkpt lat="44.72039" lon="6.80339">
        <ele>2084</ele>
        <time>2022-07-09T12:04:15Z</time>
      </trkpt>
      <trkpt lat="44.71925" lon="6.80358">
        <ele>2101</ele>
        <time>2022-07-09T12:06:48Z</time>
      </trkpt>
      <trkpt lat="44.71882" lon="6.80321">
        <ele>2108</ele>
        <time>2022-07-09T12:07:55Z</time>
      </trkpt>
      <trkpt lat="44.71821" lon="6.80333">
        <ele>2118</ele>
        <time>2022-07-09T12:09:17Z</time>
      </trkpt>
      <trkpt lat="44.71768" lon="6.80351">
        <ele>2129</ele>
        <time>2022-07-09T12:10:30Z</time>
      </trkpt>
      <trkpt lat="44.71632" lon="6.8043">
        <ele>2139</ele>
        <time>2022-07-09T12:13:46Z</time>
      </trkpt>
      <trkpt lat="44.7158" lon="6.80436">
        <ele>2147</ele>
        <time>2022-07-09T12:14:56Z</time>
      </trkpt>
      <trkpt lat="44.71453" lon="6.80464">
        <ele>2172</ele>
        <time>2022-07-09T12:17:48Z</time>
      </trkpt>
      <trkpt lat="44.71328" lon="6.80476">
        <ele>2188</ele>
        <time>2022-07-09T12:20:35Z</time>
      </trkpt>
      <trkpt lat="44.71231" lon="6.80494">
        <ele>2205</ele>
        <time>2022-07-09T12:22:45Z</time>
      </trkpt>
      <trkpt lat="44.71142" lon="6.80506">
        <ele>2227</ele>
        <time>2022-07-09T12:24:45Z</time>
      </trkpt>
      <trkpt lat="44.71142" lon="6.8047">
        <ele>2234</ele>
        <time>2022-07-09T12:25:19Z</time>
      </trkpt>
      <trkpt lat="44.71203" lon="6.8033">
        <ele>2249</ele>
        <time>2022-07-09T12:27:54Z</time>
      </trkpt>
      <trkpt lat="44.71164" lon="6.80333">
        <ele>2258</ele>
        <time>2022-07-09T12:28:47Z</time>
      </trkpt>
      <trkpt lat="44.7116" lon="6.80301">
        <ele>2264</ele>
        <time>2022-07-09T12:29:17Z</time>
      </trkpt>
      <trkpt lat="44.7113" lon="6.80311">
        <ele>2267</ele>
        <time>2022-07-09T12:29:59Z</time>
      </trkpt>
      <trkpt lat="44.71116" lon="6.80294">
        <ele>2271</ele>
        <time>2022-07-09T12:30:23Z</time>
      </trkpt>
      <trkpt lat="44.71087" lon="6.803">
        <ele>2274</ele>
        <time>2022-07-09T12:31:02Z</time>
      </trkpt>
      <trkpt lat="44.70965" lon="6.80295">
        <ele>2279</ele>
        <time>2022-07-09T12:33:45Z</time>
      </trkpt>
      <trkpt lat="44.70894" lon="6.80295">
        <ele>2285</ele>
        <time>2022-07-09T12:35:20Z</time>
      </trkpt>
      <trkpt lat="44.70821" lon="6.80295">
        <ele>2288</ele>
        <time>2022-07-09T12:36:57Z</time>
      </trkpt>
      <trkpt lat="44.70735" lon="6.80301">
        <ele>2285</ele>
        <time>2022-07-09T12:38:52Z</time>
      </trkpt>
      <trkpt lat="44.70685" lon="6.80371">
        <ele>2292</ele>
        <time>2022-07-09T12:40:26Z</time>
      </trkpt>
      <trkpt lat="44.70655" lon="6.8045">
        <ele>2307</ele>
        <time>2022-07-09T12:41:51Z</time>
      </trkpt>
      <trkpt lat="44.70597" lon="6.80529">
        <ele>2309</ele>
        <time>2022-07-09T12:43:39Z</time>
      </trkpt>
      <trkpt lat="44.70547" lon="6.80562">
        <ele>2309</ele>
        <time>2022-07-09T12:44:53Z</time>
      </trkpt>
      <trkpt lat="44.70467" lon="6.80559">
        <ele>2295</ele>
        <time>2022-07-09T12:46:40Z</time>
      </trkpt>
      <trkpt lat="44.70349" lon="6.80567">
        <ele>2285</ele>
        <time>2022-07-09T12:49:17Z</time>
      </trkpt>
      <trkpt lat="44.70267" lon="6.80615">
        <ele>2280</ele>
        <time>2022-07-09T12:51:16Z</time>
      </trkpt>
      <trkpt lat="44.70223" lon="6.80652">
        <ele>2285</ele>
        <time>2022-07-09T12:52:24Z</time>
      </trkpt>
      <trkpt lat="44.70193" lon="6.80631">
        <ele>2274</ele>
        <time>2022-07-09T12:53:09Z</time>
      </trkpt>
      <trkpt lat="44.70068" lon="6.80703">
        <ele>2279</ele>
        <time>2022-07-09T12:56:09Z</time>
      </trkpt>
      <trkpt lat="44.69965" lon="6.80722">
        <ele>2289</ele>
        <time>2022-07-09T12:58:28Z</time>
      </trkpt>
      <trkpt lat="44.69885" lon="6.80691">
        <ele>2289</ele>
        <time>2022-07-09T13:00:18Z</time>
      </trkpt>
      <trkpt lat="44.69788" lon="6.80725">
        <ele>2292</ele>
        <time>2022-07-09T13:02:32Z</time>
      </trkpt>
      <trkpt lat="44.69714" lon="6.80773">
        <ele>2294</ele>
        <time>2022-07-09T13:04:21Z</time>
      </trkpt>
      <trkpt lat="44.69671" lon="6.80849">
        <ele>2304</ele>
        <time>2022-07-09T13:05:53Z</time>
      </trkpt>
      <trkpt lat="44.69581" lon="6.8087">
        <ele>2297</ele>
        <time>2022-07-09T13:07:55Z</time>
      </trkpt>
      <trkpt lat="44.69509" lon="6.80858">
        <ele>2298</ele>
        <time>2022-07-09T13:09:31Z</time>
      </trkpt>
      <trkpt lat="44.69449" lon="6.80813">
        <ele>2291</ele>
        <time>2022-07-09T13:11:02Z</time>
      </trkpt>
      <trkpt lat="44.69384" lon="6.80807">
        <ele>2295</ele>
        <time>2022-07-09T13:12:29Z</time>
      </trkpt>
      <trkpt lat="44.69317" lon="6.80779">
        <ele>2288</ele>
        <time>2022-07-09T13:14:02Z</time>
      </trkpt>
      <trkpt lat="44.69216" lon="6.80782">
        <ele>2290</ele>
        <time>2022-07-09T13:16:17Z</time>
      </trkpt>
      <trkpt lat="44.69136" lon="6.80746">
        <ele>2296</ele>
        <time>2022-07-09T13:18:09Z</time>
      </trkpt>
      <trkpt lat="44.69095" lon="6.80667">
        <ele>2288</ele>
        <time>2022-07-09T13:19:42Z</time>
      </trkpt>
      <trkpt lat="44.69028" lon="6.80661">
        <ele>2301</ele>
        <time>2022-07-09T13:21:11Z</time>
      </trkpt>
      <trkpt lat="44.68966" lon="6.80606">
        <ele>2294</ele>
        <time>2022-07-09T13:22:49Z</time>
      </trkpt>
      <trkpt lat="44.68914" lon="6.80596">
        <ele>2295</ele>
        <time>2022-07-09T13:23:59Z</time>
      </trkpt>
      <trkpt lat="44.68852" lon="6.80585">
        <ele>2277</ele>
        <time>2022-07-09T13:25:23Z</time>
      </trkpt>
      <trkpt lat="44.68843" lon="6.80624">
        <ele>2275</ele>
        <time>2022-07-09T13:26:02Z</time>
      </trkpt>
      <trkpt lat="44.68814" lon="6.80577">
        <ele>2264</ele>
        <time>2022-07-09T13:27:01Z</time>
      </trkpt>
      <trkpt lat="44.68791" lon="6.80667">
        <ele>2253</ele>
        <time>2022-07-09T13:28:31Z</time>
      </trkpt>
      <trkpt lat="44.68737" lon="6.80598">
        <ele>2228</ele>
        <time>2022-07-09T13:30:09Z</time>
      </trkpt>
      <trkpt lat="44.6873" lon="6.80662">
        <ele>2227</ele>
        <time>2022-07-09T13:31:10Z</time>
      </trkpt>
      <trkpt lat="44.68712" lon="6.80638">
        <ele>2218</ele>
        <time>2022-07-09T13:31:43Z</time>
      </trkpt>
      <trkpt lat="44.68702" lon="6.80662">
        <ele>2215</ele>
        <time>2022-07-09T13:32:10Z</time>
      </trkpt>
      <trkpt lat="44.68683" lon="6.80616">
        <ele>2205</ele>
        <time>2022-07-09T13:33:00Z</time>
      </trkpt>
      <trkpt lat="44.68604" lon="6.80516">
        <ele>2174</ele>
        <time>2022-07-09T13:35:22Z</time>
      </trkpt>
      <trkpt lat="44.6854" lon="6.8044">
        <ele>2156</ele>
        <time>2022-07-09T13:37:14Z</time>
      </trkpt>
      <trkpt lat="44.68442" lon="6.80363">
        <ele>2134</ele>
        <time>2022-07-09T13:39:44Z</time>
      </trkpt>
      <trkpt lat="44.68445" lon="6.8041">
        <ele>2122</ele>
        <time>2022-07-09T13:40:28Z</time>
      </trkpt>
      <trkpt lat="44.68314" lon="6.80289">
        <ele>2100</ele>
        <time>2022-07-09T13:43:57Z</time>
      </trkpt>
      <trkpt lat="44.6821" lon="6.80186">
        <ele>2074</ele>
        <time>2022-07-09T13:46:47Z</time>
      </trkpt>
      <trkpt lat="44.68132" lon="6.80112">
        <ele>2054</ele>
        <time>2022-07-09T13:48:53Z</time>
      </trkpt>
      <trkpt lat="44.68134" lon="6.80148">
        <ele>2048</ele>
        <time>2022-07-09T13:49:27Z</time>
      </trkpt>
      <trkpt lat="44.68109" lon="6.80117">
        <ele>2040</ele>
        <time>2022-07-09T13:50:12Z</time>
      </trkpt>
      <trkpt lat="44.68116" lon="6.80193">
        <ele>2026</ele>
        <time>2022-07-09T13:51:24Z</time>
      </trkpt>
      <trkpt lat="44.67982" lon="6.80078">
        <ele>1981</ele>
        <time>2022-07-09T13:54:54Z</time>
      </trkpt>
      <trkpt lat="44.67961" lon="6.80084">
        <ele>1967</ele>
        <time>2022-07-09T13:55:22Z</time>
      </trkpt>
      <trkpt lat="44.67951" lon="6.8004">
        <ele>1963</ele>
        <time>2022-07-09T13:56:06Z</time>
      </trkpt>
      <trkpt lat="44.67936" lon="6.80102">
        <ele>1948</ele>
        <time>2022-07-09T13:57:08Z</time>
      </trkpt>
      <trkpt lat="44.679" lon="6.79902">
        <ele>1931</ele>
        <time>2022-07-09T14:00:24Z</time>
      </trkpt>
      <trkpt lat="44.6789" lon="6.79939">
        <ele>1923</ele>
        <time>2022-07-09T14:01:02Z</time>
      </trkpt>
      <trkpt lat="44.6787" lon="6.79838">
        <ele>1908</ele>
        <time>2022-07-09T14:02:41Z</time>
      </trkpt>
      <trkpt lat="44.67859" lon="6.79764">
        <ele>1902</ele>
        <time>2022-07-09T14:03:53Z</time>
      </trkpt>
      <trkpt lat="44.67823" lon="6.7973">
        <ele>1885</ele>
        <time>2022-07-09T14:04:51Z</time>
      </trkpt>
      <trkpt lat="44.67802" lon="6.79763">
        <ele>1875</ele>
        <time>2022-07-09T14:05:33Z</time>
      </trkpt>
      <trkpt lat="44.67764" lon="6.79712">
        <ele>1865</ele>
        <time>2022-07-09T14:06:43Z</time>
      </trkpt>
      <trkpt lat="44.6773" lon="6.79647">
        <ele>1857</ele>
        <time>2022-07-09T14:07:59Z</time>
      </trkpt>
      <trkpt lat="44.67714" lon="6.7966">
        <ele>1852</ele>
        <time>2022-07-09T14:08:24Z</time>
      </trkpt>
      <trkpt lat="44.67682" lon="6.79604">
        <ele>1841</ele>
        <time>2022-07-09T14:09:32Z</time>
      </trkpt>
      <trkpt lat="44.67666" lon="6.79597">
        <ele>1836</ele>
        <time>2022-07-09T14:09:55Z</time>
      </trkpt>
      <trkpt lat="44.67656" lon="6.79514">
        <ele>1831</ele>
        <time>2022-07-09T14:11:14Z</time>
      </trkpt>
      <trkpt lat="44.67622" lon="6.79405">
        <ele>1827</ele>
        <time>2022-07-09T14:13:07Z</time>
      </trkpt>
      <trkpt lat="44.67578" lon="6.79332">
        <ele>1817</ele>
        <time>2022-07-09T14:14:38Z</time>
      </trkpt>
      <trkpt lat="44.67535" lon="6.79244">
        <ele>1814</ele>
        <time>2022-07-09T14:16:20Z</time>
      </trkpt>
      <trkpt lat="44.67548" lon="6.79126">
        <ele>1824</ele>
        <time>2022-07-09T14:18:13Z</time>
      </trkpt>
      <trkpt lat="44.67546" lon="6.79059">
        <ele>1824</ele>
        <time>2022-07-09T14:19:16Z</time>
      </trkpt>
      <trkpt lat="44.67518" lon="6.79022">
        <ele>1813</ele>
        <time>2022-07-09T14:20:08Z</time>
      </trkpt>
      <trkpt lat="44.67527" lon="6.78959">
        <ele>1815</ele>
        <time>2022-07-09T14:21:09Z</time>
      </trkpt>
      <trkpt lat="44.67514" lon="6.78913">
        <ele>1808</ele>
        <time>2022-07-09T14:21:56Z</time>
      </trkpt>
      <trkpt lat="44.67486" lon="6.78883">
        <ele>1796</ele>
        <time>2022-07-09T14:22:43Z</time>
      </trkpt>
      <trkpt lat="44.67462" lon="6.78798">
        <ele>1790</ele>
        <time>2022-07-09T14:24:09Z</time>
      </trkpt>
      <trkpt lat="44.67447" lon="6.78716">
        <ele>1793</ele>
        <time>2022-07-09T14:25:30Z</time>
      </trkpt>
      <trkpt lat="44.67369" lon="6.78634">
        <ele>1768</ele>
        <time>2022-07-09T14:27:40Z</time>
      </trkpt>
      <trkpt lat="44.67363" lon="6.78618">
        <ele>1767</ele>
        <time>2022-07-09T14:27:57Z</time>
      </trkpt>
      <trkpt lat="44.67365" lon="6.7858">
        <ele>1773</ele>
        <time>2022-07-09T14:28:33Z</time>
      </trkpt>
      <trkpt lat="44.67344" lon="6.78566">
        <ele>1764</ele>
        <time>2022-07-09T14:29:04Z</time>
      </trkpt>
      <trkpt lat="44.6731" lon="6.78552">
        <ele>1748</ele>
        <time>2022-07-09T14:29:51Z</time>
      </trkpt>
      <trkpt lat="44.67287" lon="6.78499">
        <ele>1741</ele>
        <time>2022-07-09T14:30:50Z</time>
      </trkpt>
      <trkpt lat="44.6727" lon="6.78446">
        <ele>1740</ele>
        <time>2022-07-09T14:31:45Z</time>
      </trkpt>
      <trkpt lat="44.6725" lon="6.78416">
        <ele>1734</ele>
        <time>2022-07-09T14:32:25Z</time>
      </trkpt>
      <trkpt lat="44.67228" lon="6.78386">
        <ele>1731</ele>
        <time>2022-07-09T14:33:05Z</time>
      </trkpt>
      <trkpt lat="44.67179" lon="6.78352">
        <ele>1716</ele>
        <time>2022-07-09T14:34:18Z</time>
      </trkpt>
      <trkpt lat="44.67136" lon="6.78292">
        <ele>1705</ele>
        <time>2022-07-09T14:35:39Z</time>
      </trkpt>
      <trkpt lat="44.67143" lon="6.78339">
        <ele>1705</ele>
        <time>2022-07-09T14:36:25Z</time>
      </trkpt>
      <trkpt lat="44.67105" lon="6.78267">
        <ele>1693</ele>
        <time>2022-07-09T14:37:50Z</time>
      </trkpt>
      <trkpt lat="44.67074" lon="6.78168">
        <ele>1681</ele>
        <time>2022-07-09T14:39:32Z</time>
      </trkpt>
      <trkpt lat="44.67059" lon="6.78123">
        <ele>1681</ele>
        <time>2022-07-09T14:40:20Z</time>
      </trkpt>
      <trkpt lat="44.67028" lon="6.7808">
        <ele>1674</ele>
        <time>2022-07-09T14:41:18Z</time>
      </trkpt>
      <trkpt lat="44.66991" lon="6.78014">
        <ele>1664</ele>
        <time>2022-07-09T14:42:37Z</time>
      </trkpt>
      <trkpt lat="44.66952" lon="6.77943">
        <ele>1658</ele>
        <time>2022-07-09T14:44:03Z</time>
      </trkpt>
      <trkpt lat="44.66911" lon="6.77893">
        <ele>1652</ele>
        <time>2022-07-09T14:45:15Z</time>
      </trkpt>
      <trkpt lat="44.66875" lon="6.77839">
        <ele>1651</ele>
        <time>2022-07-09T14:46:25Z</time>
      </trkpt>
      <trkpt lat="44.6684" lon="6.77813">
        <ele>1650</ele>
        <time>2022-07-09T14:47:18Z</time>
      </trkpt>
    </trkseg>
  </trk>
</gpx>